Main page
METAR-TAF:

METAR-TAF

Airports :

Norwich, England

Norwich Airport

latitude: 52-38N, longitude: 001-18E, elevation: 14 m

Current weather observation

The report was made 34 minutes ago, at 01:50 UTC
Wind 7 kt from the West
Temperature -1°C
Humidity 100%
Pressure 1021 hPa
Visibility 10 km or more

METAR: EGSH 170150Z AUTO 27007KT 9999 NCD M01/M01 Q1021

Time: 02:24 (02:24 UTC)

Forecast

The report was made 4 hours and 17 minutes ago, at 22:07 UTC
Forecast valid from 16 at 22 UTC to 16 at 24 UTC
Wind 4 kt from the West/Northwest
Visibility 10 km or more
Few clouds at a height of 4500 ft
Becoming
from 16 at 22 UTC to 16 at 24 UTC
Visibility: 0300 m
fog, freezing fog

TAF: EGSH 162207Z 1622/1624 29004KT 9999 FEW045 BECMG 1622/1624 0300 FG FZFG VV///

Weather observations and forecasts of more than 4000 airports (METAR and TAF reports).

The available stations are represented by yellow and red dots on the map.

Hover mouse over dot to see the name of the station.

Then click to see weather observations and forecasts.

To change the map : click on the green buttons with a black cross to zoom in, on the green button with a dash to zoom out, or on the green arrows for adjacent maps.


METAR-TAF: